createdAt,value
2022-12-17T00:05:09.154Z,969.2
2022-12-17T00:10:40.698Z,968.8
2022-12-17T00:16:12.467Z,968.5
2022-12-17T00:21:44.022Z,968.35
2022-12-17T00:27:16.034Z,968.5
2022-12-17T00:32:47.529Z,968.48
2022-12-17T00:38:19.286Z,968.46
2022-12-17T00:43:52.716Z,968.45
2022-12-17T00:49:28.961Z,968.61
2022-12-17T00:55:00.850Z,968.7
2022-12-17T01:00:32.642Z,968.73
2022-12-17T01:06:04.026Z,968.87
2022-12-17T01:11:36.071Z,968.91
2022-12-17T01:17:07.590Z,968.74
2022-12-17T01:22:39.130Z,968.73
2022-12-17T01:28:10.915Z,968.7
2022-12-17T01:33:42.696Z,968.63
2022-12-17T01:39:15.432Z,968.42
2022-12-17T01:44:46.031Z,968.11
2022-12-17T01:50:24.459Z,968.21
2022-12-17T01:55:56.115Z,968.21
2022-12-17T02:01:28.456Z,968.17
2022-12-17T02:06:59.595Z,968.34
2022-12-17T02:12:31.246Z,968.42
2022-12-17T02:18:02.851Z,968.44
2022-12-17T02:23:36.019Z,968.32
2022-12-17T02:29:06.294Z,967.84
2022-12-17T02:34:38.254Z,968.03
2022-12-17T02:40:09.829Z,968.33
2022-12-17T02:45:41.594Z,968.5
2022-12-17T02:51:17.663Z,968.5
2022-12-17T02:56:49.529Z,968.74
2022-12-17T03:02:21.600Z,968.73
2022-12-17T03:07:52.958Z,968.6
2022-12-17T03:13:24.759Z,968.58
2022-12-17T03:18:57.303Z,968.92
2022-12-17T03:24:28.099Z,969.56
2022-12-17T03:29:59.680Z,969.45
2022-12-17T03:35:31.554Z,970.35
2022-12-17T03:41:03.135Z,970.35
2022-12-17T03:46:35.189Z,967.71
2022-12-17T03:52:13.191Z,968.35
2022-12-17T03:57:44.774Z,970.16
2022-12-17T04:03:16.622Z,970.46
2022-12-17T04:08:48.259Z,970.36
2022-12-17T04:14:20.004Z,970.1
2022-12-17T04:19:51.623Z,970.41
2022-12-17T04:25:23.810Z,971.06
2022-12-17T04:30:55.318Z,970.65
2022-12-17T04:36:26.685Z,971.06
2022-12-17T04:41:59.059Z,971.2
2022-12-17T04:47:30.168Z,970.82
2022-12-17T04:53:06.388Z,971.22
2022-12-17T04:58:38.050Z,971.08
2022-12-17T05:04:09.803Z,970.56
2022-12-17T05:09:41.691Z,971.83
2022-12-17T05:15:13.491Z,971.76
2022-12-17T05:20:44.915Z,969.67
2022-12-17T05:26:16.914Z,970.01
2022-12-17T05:31:48.538Z,970.43
2022-12-17T05:37:20.206Z,972.48
2022-12-17T05:42:51.880Z,972.45
2022-12-17T05:48:23.578Z,970.21
2022-12-17T05:53:59.680Z,970.93
2022-12-17T05:59:31.343Z,971.41
2022-12-17T06:05:03.696Z,970.13
2022-12-17T06:10:34.961Z,971.63
2022-12-17T06:16:06.976Z,972.86
2022-12-17T06:21:38.173Z,973.17
2022-12-17T06:27:09.867Z,972.18
2022-12-17T06:32:41.617Z,973.36
2022-12-17T06:38:13.366Z,971.6
2022-12-17T06:43:45.439Z,974.2
2022-12-17T06:49:16.889Z,973.95
2022-12-17T06:54:55.255Z,972.64
2022-12-17T07:00:26.827Z,973.2
2022-12-17T07:05:59.147Z,973.84
2022-12-17T07:11:30.269Z,972.67
2022-12-17T07:17:02.069Z,972.82
2022-12-17T07:22:33.783Z,973.37
2022-12-17T07:28:05.463Z,974.25
2022-12-17T07:33:38.288Z,974.38
2022-12-17T07:39:08.876Z,974.85
2022-12-17T07:44:40.910Z,974.04
2022-12-17T07:50:12.595Z,974.39
2022-12-17T07:55:48.399Z,972.67
2022-12-17T08:01:20.462Z,973.85
2022-12-17T08:07:08.790Z,973.9
2022-12-17T08:12:23.703Z,975.13
2022-12-17T08:17:55.756Z,976.28
2022-12-17T08:23:27.031Z,975.52
2022-12-17T08:28:58.870Z,974.27
2022-12-17T08:34:30.822Z,973.09
2022-12-17T08:40:02.392Z,973.35
2022-12-17T08:45:34.099Z,974.62
2022-12-17T08:51:05.495Z,975.62
2022-12-17T08:56:41.722Z,976.45
2022-12-17T09:02:14.284Z,977.71
2022-12-17T09:07:45.282Z,977.28
2022-12-17T09:13:16.809Z,977.37
2022-12-17T09:18:48.778Z,976.99
2022-12-17T09:24:20.443Z,975.33
2022-12-17T09:29:52.147Z,976.88
2022-12-17T09:35:23.843Z,976.95
2022-12-17T09:40:55.403Z,977.09
2022-12-17T09:46:27.631Z,977.45
2022-12-17T09:51:59.045Z,977.14
2022-12-17T09:57:35.276Z,978.02
2022-12-17T10:03:07.258Z,977.39
2022-12-17T10:08:38.599Z,978.09
2022-12-17T10:14:10.353Z,977.4
2022-12-17T10:19:41.968Z,977.78
2022-12-17T10:25:13.723Z,978.27
2022-12-17T10:30:45.634Z,977.92
2022-12-17T10:36:17.154Z,977.75
2022-12-17T10:41:49.048Z,975.28
2022-12-17T10:47:20.846Z,975.5
2022-12-17T10:52:52.542Z,975.61
2022-12-17T10:58:28.620Z,978.59
2022-12-17T11:04:00.440Z,978.98
2022-12-17T11:09:42.753Z,978.09
2022-12-17T11:15:03.717Z,978.02
2022-12-17T11:20:35.396Z,979.92
2022-12-17T11:26:07.339Z,978.52
2022-12-17T11:31:38.933Z,978.08
2022-12-17T11:37:10.580Z,979.33
2022-12-17T11:42:42.302Z,980.54
2022-12-17T11:48:13.864Z,980.1
2022-12-17T11:53:45.691Z,979.12
2022-12-17T11:59:22.128Z,981.11
2022-12-17T12:04:53.807Z,980.47
2022-12-17T12:10:25.522Z,980.64
2022-12-17T12:15:57.225Z,979.75
2022-12-17T12:21:28.727Z,979.84
2022-12-17T12:27:00.517Z,979.61
2022-12-17T12:32:32.210Z,980.25
2022-12-17T12:38:04.662Z,978.42
2022-12-17T12:43:35.646Z,977.67
2022-12-17T12:49:07.401Z,978.82
2022-12-17T12:54:40.021Z,979.19
2022-12-17T13:00:17.538Z,979.13
2022-12-17T13:05:49.314Z,979.29
2022-12-17T13:11:20.802Z,979.3
2022-12-17T13:16:52.775Z,978.94
2022-12-17T13:22:25.410Z,977.51
2022-12-17T13:27:56.075Z,978.19
2022-12-17T13:33:27.998Z,977.68
2022-12-17T13:38:59.246Z,977.88
2022-12-17T13:44:30.919Z,978.13
2022-12-17T13:50:36.075Z,977.23
2022-12-17T13:55:34.372Z,977.35
2022-12-17T14:01:11.834Z,977.85
2022-12-17T14:06:42.280Z,977.0
2022-12-17T14:12:14.190Z,977.56
2022-12-17T14:17:45.650Z,977.33
2022-12-17T14:23:17.931Z,977.73
2022-12-17T14:28:51.529Z,978.36
2022-12-17T14:34:20.909Z,978.01
2022-12-17T14:39:52.762Z,978.34
2022-12-17T14:45:24.670Z,978.24
2022-12-17T14:50:55.964Z,978.31
2022-12-17T14:56:27.930Z,977.2
2022-12-17T15:02:04.491Z,978.3
2022-12-17T15:07:35.872Z,978.48
2022-12-17T15:13:07.419Z,978.79
2022-12-17T15:18:40.924Z,978.57
2022-12-17T15:24:11.098Z,978.34
2022-12-17T15:29:42.665Z,978.03
2022-12-17T15:35:14.321Z,977.41
2022-12-17T15:40:46.206Z,977.22
2022-12-17T15:46:17.936Z,977.09
2022-12-17T15:51:49.507Z,976.74
2022-12-17T15:57:21.291Z,976.53
2022-12-17T16:02:57.942Z,976.47
2022-12-17T16:08:29.364Z,976.01
2022-12-17T16:14:00.887Z,975.95
2022-12-17T16:19:32.653Z,975.71
2022-12-17T16:25:04.173Z,975.66
2022-12-17T16:30:36.039Z,975.52
2022-12-17T16:36:07.580Z,975.46
2022-12-17T16:41:39.392Z,975.5
2022-12-17T16:47:11.594Z,975.4
2022-12-17T16:52:42.810Z,975.24
2022-12-17T16:58:14.594Z,975.16
2022-12-17T17:03:50.862Z,974.77
2022-12-17T17:09:22.805Z,975.06
2022-12-17T17:14:54.837Z,975.06
2022-12-17T17:20:25.939Z,975.18
2022-12-17T17:25:59.459Z,975.26
2022-12-17T17:32:12.971Z,975.46
2022-12-17T17:37:02.257Z,974.62
2022-12-17T17:42:32.907Z,975.25
2022-12-17T17:48:04.986Z,974.75
2022-12-17T17:53:36.378Z,974.73
2022-12-17T17:59:08.224Z,974.81
2022-12-17T18:04:46.358Z,975.02
2022-12-17T18:10:18.154Z,975.39
2022-12-17T18:15:50.017Z,975.41
2022-12-17T18:21:21.694Z,974.68
2022-12-17T18:26:53.168Z,974.45
2022-12-17T18:32:25.220Z,974.05
2022-12-17T18:37:56.526Z,974.02
2022-12-17T18:43:28.341Z,973.99
2022-12-17T18:49:00.097Z,974.28
2022-12-17T18:54:31.515Z,974.02
2022-12-17T19:00:03.486Z,973.67
2022-12-17T19:05:54.143Z,973.67
2022-12-17T19:11:14.035Z,973.59
2022-12-17T19:16:45.312Z,973.62
2022-12-17T19:22:16.859Z,973.38
2022-12-17T19:27:48.308Z,973.41
2022-12-17T19:33:20.030Z,973.47
2022-12-17T19:38:52.170Z,973.65
2022-12-17T19:44:23.566Z,973.83
2022-12-17T19:49:55.311Z,973.66
2022-12-17T19:55:27.337Z,973.32
2022-12-17T20:00:59.216Z,973.02
2022-12-17T20:06:35.231Z,973.27
2022-12-17T20:12:06.691Z,973.06
2022-12-17T20:17:38.366Z,973.1
2022-12-17T20:23:10.247Z,973.2
2022-12-17T20:28:43.123Z,973.17
2022-12-17T20:34:13.515Z,972.26
2022-12-17T20:39:45.672Z,973.12
2022-12-17T20:45:17.820Z,972.19
2022-12-17T20:50:49.074Z,971.45
2022-12-17T20:56:20.694Z,971.61
2022-12-17T21:01:57.324Z,972.88
2022-12-17T21:07:28.284Z,972.73
2022-12-17T21:12:59.912Z,972.28
2022-12-17T21:18:31.485Z,972.1
2022-12-17T21:24:03.392Z,972.08
2022-12-17T21:29:35.187Z,972.05
2022-12-17T21:35:07.181Z,972.95
2022-12-17T21:40:38.655Z,973.02
2022-12-17T21:46:10.662Z,972.78
2022-12-17T21:51:42.131Z,972.75
2022-12-17T21:57:15.300Z,972.49
2022-12-17T22:02:46.040Z,973.33
2022-12-17T22:08:22.294Z,972.98
2022-12-17T22:13:53.206Z,971.39
2022-12-17T22:19:25.272Z,972.65
2022-12-17T22:24:57.328Z,972.53
2022-12-17T22:30:28.644Z,972.35
2022-12-17T22:47:03.882Z,973.67
2022-12-17T22:52:36.316Z,973.74
2022-12-17T22:58:07.359Z,973.38
2022-12-17T23:03:40.757Z,973.31
2022-12-17T23:09:14.984Z,973.54
2022-12-17T23:14:46.797Z,973.37
2022-12-17T23:20:18.679Z,973.17
2022-12-17T23:25:50.337Z,972.89
2022-12-17T23:31:22.356Z,972.31
2022-12-17T23:36:53.631Z,971.95
2022-12-17T23:42:25.456Z,971.8
2022-12-17T23:47:57.076Z,971.42
2022-12-17T23:53:28.859Z,971.59
2022-12-17T23:59:00.664Z,971.65
